This is the latest recevied weather packets stored in our database for station/object K7GFH-13. If no packets are shown the sender has not sent any weather packets the latest 10 day(s).
| Time | Temp. | Humidity | Pressure | Rain* | Wind** | Luminosity | Snow |
|---|---|---|---|---|---|---|---|
| 1777495972 | 17.22° C | 52% | 1023.8 hPa | 0 mm | - | 705 W/m² | - |
| 1777494164 | 16.11° C | 54% | 1024.1 hPa | 0 mm | - | 717 W/m² | - |
| 1777491458 | 15.56° C | 56% | 1024.5 hPa | 0 mm | - | 707 W/m² | - |
| 1777490553 | 14.44° C | 57% | 1024.6 hPa | 0 mm | - | 699 W/m² | - |
| 1777489651 | 13.89° C | 60% | 1024.6 hPa | 0 mm | - | 686 W/m² | - |
| 1777487846 | 13.89° C | 59% | 1024.9 hPa | 0 mm | - | 654 W/m² | - |
| 1777486942 | 12.78° C | 58% | 1025.1 hPa | 0 mm | - | 635 W/m² | - |
| 1777485139 | 11.67° C | 64% | 1025.3 hPa | 0 mm | - | 585 W/m² | - |
| 1777484236 | 11.67° C | 65% | 1025.4 hPa | 0 mm | - | 557 W/m² | - |
| 1777483335 | 11.67° C | 66% | 1025.5 hPa | 0 mm | - | 524 W/m² | - |
| 1777482430 | 11.67° C | 66% | 1025.8 hPa | 0 mm | - | 491 W/m² | - |
| 1777481528 | 10.56° C | 70% | 1025.8 hPa | 0 mm | - | 458 W/m² | - |
| 1777480624 | 10.56° C | 68% | 1025.9 hPa | 0 mm | - | 422 W/m² | - |
| 1777479720 | 10.56° C | 67% | 1026 hPa | 0 mm | - | 385 W/m² | - |
| 1777477007 | 9.44° C | 73% | 1026.4 hPa | 0 mm | - | 254 W/m² | - |
| 1777475203 | 8.33° C | 77% | 1026.5 hPa | 0 mm | - | 184 W/m² | - |
| 1777474303 | 7.78° C | 78% | 1026.4 hPa | 0 mm | - | 146 W/m² | - |
| 1777473399 | 7.22° C | 80% | 1026.6 hPa | 0 mm | - | 77 W/m² | - |
| 1777466169 | 3.89° C | 96% | 1026 hPa | 0 mm | - | 0 W/m² | - |
| 1777465268 | 3.33° C | 95% | 1025.9 hPa | 0 mm | - | 0 W/m² | - |
| 1777462563 | 4.44° C | 94% | 1026 hPa | 0 mm | - | 0 W/m² | - |
| 1777461658 | 5° C | 93% | 1026 hPa | 0 mm | - | 0 W/m² | - |
| 1777458949 | 5° C | 94% | 1025.9 hPa | 0 mm | - | 0 W/m² | - |
| 1777458049 | 5° C | 94% | 1025.9 hPa | 0 mm | - | 0 W/m² | - |
| 1777457146 | 5° C | 94% | 1025.8 hPa | 0 mm | - | 0 W/m² | - |
* Rain latest hour (hover to see other rain measurements)
** Current wind speed in m/s (hover to see current wind gust speed)